Terminal Aerodrome Forecast
Issued by NWS

Home | Current Version | Previous Version | Text Only | Print | Product List | Glossary On
Versions: 1 2 3 4 5 6 7 8 9 10 11 12 13 14 15 16 17 18 19 20 21 22 23 24 25
000
FTUS43 KPAH 290538
TAFOWB

TAF
KOWB 290530Z 2906/3006 26006KT P6SM SCT100
     FM290700 00000KT 3SM BR SCT015
      TEMPO 2908/2912 1SM BR BCFG OVC005
     FM291300 20003KT P6SM BKN015
     FM291700 22006KT P6SM BKN030=

USA.gov is the U.S. government's official web portal to all federal, state and local government web resources and services.